Last 7 Days

Morrison Lane

Hourly Data | America/Los_Angeles
as of 8/12/22 5:46 AM PDT
Date & Time BatVolt (V) CellRSSI (dB) CellUseToday (kb) Dew Pt (°F) ETo Hr (in) Latest Rain (In) RH (%) Solar Rad (W/m2) Temp (°F) Wet Bulb (°F) Wind Dir (°) Wind Gust (mph) Wind Gst Dir (°) Wind Spd (mph) Daily ETo (in) Daily Rain (In) Daily Max Temp (°F) Daily Min Temp (°F)
8/12/22 - 0500 12.9 -65 66.09 55.7 0.000 0.00 84 0 60.6 58.8 WSW | 246 13.5 W | 274 3.3 0.001 0.00 63.1 60.3
8/12/22 - 0400 12.9 -61 50.32 55.7 0.000 0.00 82 0 61.3 59.1 WSW | 247 13.5 WSW | 245 5.5 0.001 0.00 63.1 60.6
8/12/22 - 0300 12.9 -65 34.17 55.7 0.000 0.00 82 0 61.3 59.1 WSW | 240 12.4 WSW | 254 5.5 0.001 0.00 63.1 60.6
8/12/22 - 0200 12.9 -65 18.15 55.0 0.001 0.00 77 0 62.4 59.0 W | 265 15.8 W | 268 8.0 0.001 0.00 63.1 61.6
8/12/22 - 0100 13.0 -65 375.9 53.1 0.001 0.00 70 0 63.0 57.9 WNW | 284 12.7 W | 271 6.1 0.261 0.00 88.8 61.3
8/12/22 - 0000 13.0 -63 359.6 52.9 0.001 0.00 69 0 63.0 57.8 SW | 235 16.8 SW | 218 7.8 0.260 0.00 88.8 61.3
8/11/22 - 2300 13.0 -59 339.7 53.1 0.001 0.00 69 0 63.6 58.1 S | 188 16.8 SW | 216 5.7 0.259 0.00 88.8 61.3
8/11/22 - 2200 13.0 -61 323.6 52.3 0.000 0.00 62 0 65.6 58.2 SSW | 207 9.6 W | 271 3.0 0.259 0.00 88.8 61.3
8/11/22 - 2100 13.1 -63 306.8 52.2 0.002 0.00 57 2 67.8 58.9 WSW | 246 14.4 SW | 229 6.6 0.259 0.00 88.8 61.3
8/11/22 - 2000 13.2 -61 292.7 52.3 0.004 0.00 49 78 72.5 60.2 SW | 231 16.2 SW | 218 6.1 0.257 0.00 88.8 61.3
8/11/22 - 1900 13.4 -61 278.1 51.3 0.011 0.00 39 284 78.7 61.0 SW | 229 17.6 SW | 219 7.3 0.253 0.00 88.8 61.3
8/11/22 - 1800 13.4 -61 266.1 50.1 0.018 0.00 32 459 83.4 61.4 SW | 228 18.6 SW | 220 8.6 0.242 0.00 88.8 61.3
8/11/22 - 1700 13.4 -61 255.9 54.9 0.023 0.00 37 635 84.0 64.1 SW | 226 23.0 SW | 227 11.6 0.225 0.00 88.8 61.3
8/11/22 - 1600 13.4 -59 239.4 55.8 0.029 0.00 36 831 86.1 64.9 SW | 226 18.9 SW | 214 11.4 0.201 0.00 88.8 61.3
8/11/22 - 1500 13.4 -61 223.1 52.8 0.032 0.00 30 926 87.6 63.4 WSW | 258 18.1 WNW | 289 9.6 0.172 0.00 88.8 61.3
8/11/22 - 1400 13.4 -59 207.2 52.2 0.033 0.00 31 976 86.4 62.9 W | 260 15.8 W | 264 10.0 0.140 0.00 87.8 61.3
8/11/22 - 1300 13.4 -61 190.7 53.0 0.031 0.00 34 963 84.1 63.0 WSW | 251 15.9 W | 261 9.3 0.107 0.00 85.5 61.3
8/11/22 - 1200 13.4 -59 174.8 55.4 0.027 0.00 42 902 80.8 63.8 SW | 226 14.5 WSW | 252 7.7 0.076 0.00 83.0 61.3
8/11/22 - 1100 13.5 -63 160.6 56.4 0.022 0.00 49 786 77.1 63.7 SSW | 212 13.7 SW | 229 6.9 0.049 0.00 78.7 61.3
8/11/22 - 1000 13.5 -59 145.5 55.7 0.011 0.00 53 321 74.0 62.6 SW | 218 13.1 SW | 224 5.8 0.027 0.00 75.0 61.3
8/11/22 - 0900 13.6 -63 129.9 55.2 0.011 0.00 62 411 69.0 61.1 WSW | 246 13.8 SW | 230 6.5 0.016 0.00 72.8 61.3
8/11/22 - 0800 13.4 -65 113.1 56.2 0.004 0.00 75 202 64.2 60.4 WSW | 249 15.2 W | 270 6.6 0.005 0.00 65.8 61.3
8/11/22 - 0700 13.0 -63 96.3 57.0 0.000 0.00 84 32 61.8 60.2 WSW | 245 12.8 WSW | 250 5.7 0.001 0.00 63.4 61.3
8/11/22 - 0600 12.9 -59 82.3 57.6 0.000 0.00 85 0 62.2 60.8 W | 264 14.6 W | 278 7.5 0.001 0.00 63.4 61.7
8/11/22 - 0500 12.9 -65 66.07 57.6 0.000 0.00 84 0 62.3 60.7 W | 270 12.2 W | 270 6.5 0.001 0.00 63.4 62.0
8/11/22 - 0400 12.9 -63 49.8 57.2 0.000 0.00 81 0 63.1 60.7 WSW | 248 13.8 W | 273 5.9 0.001 0.00 63.4 62.6
8/11/22 - 0300 12.9 -63 33.82 57.6 0.000 0.00 82 0 63.0 61.0 WSW | 256 15.4 SW | 224 5.6 0.000 0.00 63.3 62.6
8/11/22 - 0200 13.0 -63 17.62 57.2 0.000 0.00 82 0 62.9 60.7 SW | 234 16.8 SW | 236 7.4 0.000 0.00 63.3 62.6
8/11/22 - 0100 13.0 -63 390.1 57.2 0.000 0.00 80 0 63.4 60.8 SW | 236 12.8 SSW | 207 6.5 0.255 0.00 85.7 57.6
8/11/22 - 0000 13.0 -63 374.4 56.6 0.001 0.00 76 0 64.3 60.7 SW | 232 14.1 WSW | 246 7.5 0.255 0.00 85.7 57.6
8/10/22 - 2300 13.0 -63 356.9 55.1 0.001 0.00 67 0 66.2 60.2 SSW | 202 10.4 SW | 225 4.6 0.254 0.00 85.7 57.6
8/10/22 - 2200 13.0 -61 340.4 53.3 0.002 0.00 54 0 70.9 60.4 SW | 227 12.6 W | 260 6.1 0.254 0.00 85.7 57.6
8/10/22 - 2100 13.1 -63 324.6 53.1 0.000 0.00 52 2 71.6 60.4 W | 261 12.5 SW | 232 2.5 0.252 0.00 85.7 57.6
8/10/22 - 2000 13.2 -65 308.3 53.0 0.005 0.00 44 76 76.4 61.5 WSW | 251 14.2 WSW | 246 7.0 0.252 0.00 85.7 57.6
8/10/22 - 1900 13.4 -61 292 53.3 0.011 0.00 39 272 80.8 62.6 WSW | 247 13.6 SW | 233 6.7 0.247 0.00 85.7 57.6
8/10/22 - 1800 13.4 -61 275 54.0 0.018 0.00 37 485 82.8 63.4 SW | 232 17.0 SW | 215 9.2 0.236 0.00 85.7 57.6
8/10/22 - 1700 13.4 -61 259.3 54.9 0.024 0.00 37 678 83.6 64.0 SW | 227 18.8 SW | 216 11.0 0.218 0.00 85.7 57.6
8/10/22 - 1600 13.4 -63 245.9 55.4 0.028 0.00 37 825 84.7 64.5 SW | 221 19.3 SSW | 213 10.4 0.194 0.00 85.7 57.6
8/10/22 - 1500 13.5 -61 230.3 55.2 0.030 0.00 37 925 84.6 64.3 SW | 217 16.9 SW | 225 9.6 0.166 0.00 85.7 57.6
8/10/22 - 1400 13.5 -59 214.2 55.4 0.030 0.00 39 971 83.2 64.2 SW | 214 16.0 SSW | 200 9.1 0.136 0.00 84.5 57.6
8/10/22 - 1300 13.5 -61 197.1 56.0 0.029 0.00 43 961 80.8 64.2 SW | 217 18.7 SW | 225 9.3 0.106 0.00 81.9 57.6
8/10/22 - 1200 13.5 -61 181 54.4 0.027 0.00 42 902 79.3 62.9 SW | 234 14.6 SSW | 209 7.5 0.077 0.00 81.1 57.6
8/10/22 - 1100 13.5 -61 164.4 53.5 0.022 0.00 47 785 75.2 61.5 WSW | 256 13.2 W | 274 7.7 0.050 0.00 77.9 57.6
8/10/22 - 1000 13.6 -61 148 53.1 0.011 0.00 53 307 71.1 60.3 WSW | 258 14.4 WSW | 258 8.6 0.028 0.00 73.0 57.6
8/10/22 - 0900 13.6 -63 131.7 53.4 0.011 0.00 61 412 67.4 59.5 WSW | 252 14.4 W | 260 9.1 0.017 0.00 69.1 57.6
8/10/22 - 0800 13.4 -65 114.9 53.8 0.005 0.00 69 201 64.2 58.7 WSW | 253 12.8 WSW | 241 5.4 0.006 0.00 66.2 57.6
8/10/22 - 0700 13.0 -65 100.5 53.6 0.001 0.00 77 33 61.0 57.6 SW | 222 13.2 SW | 228 7.7 0.001 0.00 62.5 57.6
8/10/22 - 0600 12.9 -65 83.5 54.0 0.000 0.00 85 0 58.4 56.9 SSW | 201 7.8 SSW | 209 4.2 0.001 0.00 61.5 57.6
8/10/22 - 0500 12.9 -65 67.41 53.7 0.000 0.00 77 0 61.1 57.7 WSW | 251 11.2 WSW | 250 5.9 0.001 0.00 61.5 58.6
8/10/22 - 0400 12.9 -59 51.26 54.3 0.000 0.00 80 0 60.6 57.9 WSW | 239 11.4 WSW | 258 5.4 0.000 0.00 61.3 58.6
8/10/22 - 0300 12.9 -63 35.37 55.0 0.000 0.00 86 0 59.1 57.8 SSW | 209 9.9 SSW | 200 3.4 0.000 0.00 60.7 58.6
8/10/22 - 0200 13.0 -65 17.98 55.4 0.000 0.00 84 0 60.2 58.5 WSW | 240 7.3 SW | 234 2.4 0.000 0.00 60.7 59.7
8/10/22 - 0100 13.0 -61 484.4 55.9 0.000 0.00 83 0 61.0 59.1 SW | 233 8.9 WSW | 238 4.5 0.258 0.00 84.3 60.1
8/10/22 - 0000 13.0 -65 468.2 55.8 0.000 0.00 79 0 62.2 59.5 SW | 235 13.4 SW | 221 6.7 0.258 0.00 84.3 60.1
8/9/22 - 2300 13.0 -63 451.2 55.4 0.001 0.00 75 0 63.3 59.5 SW | 225 14.4 SW | 224 7.0 0.258 0.00 84.3 60.1
8/9/22 - 2200 13.0 -67 435.9 54.6 0.001 0.00 69 0 64.9 59.5 SW | 214 10.8 SSW | 212 5.2 0.257 0.00 84.3 60.1
8/9/22 - 2100 13.0 -61 421 53.4 0.000 0.00 60 2 68.0 59.6 SSW | 208 9.3 WSW | 252 3.4 0.256 0.00 84.3 60.1
8/9/22 - 2000 13.2 -63 403.7 52.3 0.004 0.00 49 77 72.3 60.1 WSW | 247 18.5 SW | 232 6.6 0.256 0.00 84.3 60.1
8/9/22 - 1900 13.5 -59 387.7 51.4 0.013 0.00 42 274 76.0 60.5 WSW | 237 22.1 WSW | 253 12.0 0.252 0.00 84.3 60.1
8/9/22 - 1800 13.4 -59 371.7 50.7 0.018 0.00 37 488 79.5 60.9 SW | 232 21.2 SW | 221 9.6 0.239 0.00 84.3 60.1
8/9/22 - 1700 13.4 -63 354.6 49.6 0.024 0.00 32 676 82.0 60.8 SW | 228 21.3 SW | 226 11.7 0.222 0.00 84.3 60.1
8/9/22 - 1600 13.4 -63 335.3 51.1 0.028 0.00 33 829 83.5 61.9 SW | 235 21.2 SW | 234 11.0 0.197 0.00 84.3 60.1
8/9/22 - 1500 13.4 -61 319.6 52.5 0.030 0.00 35 929 83.3 62.6 SW | 230 16.0 SSW | 210 8.5 0.169 0.00 84.3 60.1
8/9/22 - 1400 13.4 -61 303.5 54.4 0.030 0.00 39 974 81.6 63.4 SW | 219 16.5 SSW | 198 8.8 0.139 0.00 82.3 60.1
8/9/22 - 1300 13.4 -61 287.1 54.0 0.029 0.00 39 967 81.0 63.0 SW | 219 15.3 WSW | 250 7.9 0.109 0.00 81.9 60.1
8/9/22 - 1200 13.5 -61 270.7 52.3 0.027 0.00 39 907 79.2 61.7 SW | 229 14.9 SW | 225 8.1 0.080 0.00 80.5 60.1
8/9/22 - 1100 13.6 -61 254 53.4 0.022 0.00 46 790 75.4 61.5 WSW | 245 14.9 W | 261 6.8 0.053 0.00 77.5 60.1
8/9/22 - 1000 13.6 -63 180.3 54.7 0.011 0.00 57 303 70.8 61.2 SW | 219 14.6 SSW | 200 8.5 0.031 0.00 73.3 60.1
8/9/22 - 0900 13.6 -61 160.3 54.6 0.010 0.00 63 419 67.5 60.3 SW | 219 12.2 SSW | 212 7.1 0.020 0.00 69.1 60.1
8/9/22 - 0800 13.4 -63 140.1 54.3 0.005 0.00 72 200 63.4 58.9 SW | 228 15.1 WSW | 256 7.5 0.010 0.00 65.3 60.1
8/9/22 - 0700 13.0 -63 120.3 54.0 0.001 0.00 77 15 61.3 58.0 SW | 225 14.1 WSW | 246 8.2 0.005 0.00 64.1 60.1
8/9/22 - 0600 12.9 -63 100.9 54.0 0.001 0.00 73 0 62.6 58.4 WSW | 250 15.8 WSW | 244 9.5 0.004 0.00 64.1 61.7
8/9/22 - 0500 12.9 -65 82.7 54.0 0.001 0.00 71 0 63.6 58.7 WSW | 242 16.9 WSW | 257 9.4 0.003 0.00 64.1 61.7
8/9/22 - 0400 12.9 -61 62.19 54.6 0.001 0.00 76 0 62.3 58.7 W | 275 16.4 W | 267 9.1 0.002 0.00 64.1 61.7
8/9/22 - 0300 12.9 -65 42.25 54.8 0.001 0.00 76 0 62.5 58.9 WNW | 286 16.5 W | 262 8.7 0.001 0.00 64.1 61.7
8/9/22 - 0200 12.9 -65 21.69 54.3 0.001 0.00 73 0 63.2 58.8 WSW | 246 15.5 W | 264 6.5 0.001 0.00 64.1 61.9
8/9/22 - 0100 13.0 -65 476.2 54.0 0.001 0.00 69 0 64.5 59.0 WSW | 253 18.3 WNW | 283 8.0 0.275 0.00 85.8 61.6
8/9/22 - 0000 13.0 -65 456.9 53.1 0.001 0.00 65 0 65.3 58.7 W | 275 16.2 WNW | 288 7.9 0.273 0.00 85.8 61.6
8/8/22 - 2300 13.0 -63 437.4 52.6 0.000 0.00 65 0 64.8 58.2 WSW | 248 13.2 WNW | 289 4.1 0.272 0.00 85.8 61.6
8/8/22 - 2200 13.0 -63 417.7 53.4 0.000 0.00 65 0 65.3 58.9 WSW | 240 7.8 SW | 232 3.0 0.272 0.00 85.8 61.6
8/8/22 - 2100 13.1 -65 397.3 53.3 0.002 0.00 59 2 68.0 59.6 SW | 224 13.6 SW | 216 6.8 0.272 0.00 85.8 61.6
8/8/22 - 2000 13.2 -63 379.7 52.1 0.005 0.00 47 82 73.8 60.4 SW | 231 13.0 SW | 228 7.2 0.270 0.00 85.8 61.6
8/8/22 - 1900 13.5 -59 359.3 51.0 0.013 0.00 38 291 78.9 60.9 SW | 236 17.4 SW | 230 9.5 0.265 0.00 85.8 61.6
8/8/22 - 1800 13.4 -59 339.3 50.7 0.019 0.00 34 503 81.3 61.2 SW | 231 17.9 SW | 222 10.7 0.253 0.00 85.8 61.6
8/8/22 - 1700 13.4 -61 319.2 51.9 0.025 0.00 33 680 83.8 62.4 SW | 228 20.3 WSW | 257 11.6 0.233 0.00 85.8 61.6
8/8/22 - 1600 13.4 -61 299.6 53.4 0.029 0.00 35 834 84.4 63.3 SW | 228 19.2 SW | 214 11.1 0.208 0.00 85.8 61.6
8/8/22 - 1500 13.4 -63 279.9 53.3 0.031 0.00 34 935 85.0 63.3 SW | 225 17.9 WSW | 241 10.1 0.180 0.00 85.8 61.6
8/8/22 - 1400 13.4 -63 259.9 53.9 0.032 0.00 36 982 83.6 63.4 SW | 224 19.4 SW | 231 10.8 0.149 0.00 84.6 61.6
8/8/22 - 1300 13.5 -63 240.4 54.1 0.031 0.00 37 971 82.7 63.4 SW | 228 17.1 SW | 230 9.6 0.117 0.00 83.8 61.6
8/8/22 - 1200 13.5 -59 220.6 54.2 0.028 0.00 41 909 80.0 63.0 WSW | 237 16.2 WSW | 247 9.2 0.086 0.00 81.6 61.6
8/8/22 - 1100 13.5 -59 199.6 53.4 0.023 0.00 45 792 76.0 61.7 WSW | 244 18.1 SW | 234 10.0 0.059 0.00 78.6 61.6
8/8/22 - 1000 13.6 -63 180.3 53.1 0.012 0.00 52 298 71.8 60.5 WSW | 244 19.9 WSW | 237 11.7 0.036 0.00 73.8 61.6
8/8/22 - 0900 13.6 -61 160.5 53.6 0.012 0.00 58 426 68.9 60.1 WSW | 241 20.6 SW | 220 10.6 0.023 0.00 69.9 61.6
8/8/22 - 0800 13.3 -65 140.3 54.0 0.006 0.00 66 213 65.8 59.4 WSW | 244 16.7 WSW | 237 7.9 0.011 0.00 67.5 61.6
8/8/22 - 0700 13.0 -63 121.5 54.1 0.001 0.00 73 36 62.9 58.5 WSW | 238 14.2 WSW | 240 7.1 0.006 0.00 64.6 61.6
8/8/22 - 0600 12.8 -61 102.5 54.1 0.001 0.00 74 0 62.4 58.4 SW | 232 13.1 SW | 229 7.2 0.004 0.00 64.2 61.6
8/8/22 - 0500 12.9 -65 81.6 54.0 0.001 0.00 75 0 62.1 58.2 SW | 230 17.0 WSW | 244 10.1 0.004 0.00 64.2 61.6
8/8/22 - 0400 12.9 -65 62.19 54.0 0.001 0.00 74 0 62.4 58.3 SW | 235 19.6 SW | 224 10.3 0.003 0.00 64.2 61.6
8/8/22 - 0300 12.9 -65 41.33 54.0 0.001 0.00 74 0 62.6 58.4 SW | 235 17.2 WSW | 239 8.0 0.002 0.00 64.2 61.6
8/8/22 - 0200 13.0 -65 21.57 53.7 0.001 0.00 69 0 64.0 58.6 WSW | 238 16.1 WSW | 258 7.4 0.001 0.00 64.2 63.7
8/8/22 - 0100 13.0 -63 489.3 53.8 0.001 0.00 70 0 63.7 58.6 WSW | 243 12.8 WSW | 237 6.1 0.262 0.00 86.6 60.0
8/8/22 - 0000 13.0 -65 468.9 53.6 0.001 0.00 70 0 63.4 58.4 WSW | 239 12.4 W | 268 5.5 0.261 0.00 86.6 60.0
8/7/22 - 2300 13.0 -65 447.2 52.8 0.000 0.00 67 0 64.1 58.2 SW | 219 11.4 WSW | 254 3.5 0.261 0.00 86.6 60.0
8/7/22 - 2200 13.0 -61 426.4 52.2 0.001 0.00 61 0 66.2 58.4 WSW | 245 10.8 WSW | 249 4.1 0.260 0.00 86.6 60.0
8/7/22 - 2100 13.1 -63 406.1 51.6 0.001 0.00 54 2 68.8 58.8 W | 263 11.0 WSW | 245 3.2 0.260 0.00 86.6 60.0
8/7/22 - 2000 13.2 -63 386.1 51.3 0.004 0.00 46 86 73.2 59.8 SW | 234 13.3 WSW | 238 5.6 0.259 0.00 86.6 60.0
8/7/22 - 1900 13.4 -63 366.1 51.5 0.012 0.00 39 287 78.8 61.2 WSW | 246 16.3 SW | 222 8.4 0.255 0.00 86.6 60.0
8/7/22 - 1800 13.4 -63 345.5 52.2 0.019 0.00 35 499 82.2 62.2 SW | 236 19.4 SW | 219 10.6 0.244 0.00 86.6 60.0
8/7/22 - 1700 13.4 -61 325.3 53.4 0.025 0.00 35 687 84.3 63.3 SW | 232 17.7 SW | 232 10.4 0.224 0.00 86.6 60.0
8/7/22 - 1600 13.5 -63 305.1 55.1 0.028 0.00 37 837 84.2 64.2 SW | 228 17.6 SW | 227 10.3 0.200 0.00 86.6 60.0
8/7/22 - 1500 13.4 -63 284.6 54.5 0.031 0.00 35 934 85.5 64.0 SW | 231 16.8 SW | 216 9.2 0.172 0.00 86.6 60.0
8/7/22 - 1400 13.5 -63 265.4 53.1 0.032 0.00 34 980 84.8 63.2 WSW | 254 17.5 WSW | 256 9.8 0.141 0.00 86.2 60.0
8/7/22 - 1300 13.5 0 245.1 52.3 0.031 0.00 37 974 81.2 62.1 WSW | 258 17.0 W | 281 10.8 0.109 0.00 83.2 60.0
8/7/22 - 1200 13.5 -61 226 52.4 0.027 0.00 42 912 77.3 61.3 WSW | 257 19.1 W | 271 11.2 0.079 0.00 79.6 60.0
8/7/22 - 1100 13.5 -61 205.9 52.9 0.022 0.00 50 795 72.7 60.6 WSW | 256 18.7 W | 267 10.8 0.051 0.00 74.9 60.0
8/7/22 - 1000 13.6 -59 185.8 53.1 0.010 0.00 58 301 68.4 59.6 WSW | 254 17.9 W | 261 9.9 0.030 0.00 70.6 60.0
8/7/22 - 0900 13.6 -63 164.9 53.8 0.010 0.00 70 424 64.0 58.7 W | 259 17.2 WSW | 238 9.6 0.019 0.00 66.8 60.0
8/7/22 - 0800 13.4 -65 143.6 54.0 0.005 0.00 75 210 61.9 58.2 WSW | 256 18.9 W | 264 8.7 0.009 0.00 64.1 60.0
8/7/22 - 0700 13.0 -65 123.3 53.8 0.001 0.00 79 35 60.4 57.5 WSW | 247 14.7 WSW | 257 6.9 0.005 0.00 64.1 60.0
8/7/22 - 0600 12.9 -67 103.5 53.3 0.000 0.00 76 0 60.8 57.3 WSW | 252 12.8 WSW | 257 6.3 0.004 0.00 64.1 60.4
8/7/22 - 0500 12.9 -69 82.5 52.9 0.001 0.00 74 0 61.4 57.3 W | 263 15.5 WSW | 250 6.7 0.004 0.00 64.1 61.0
8/7/22 - 0400 13.0 -63 63.06 52.8 0.001 0.00 71 0 62.2 57.5 WSW | 258 17.3 WSW | 245 8.8 0.003 0.00 64.1 61.6
8/7/22 - 0300 12.9 -65 42.7 52.8 0.001 0.00 69 0 63.0 57.7 WSW | 254 15.6 SW | 230 7.6 0.002 0.00 64.1 61.7
8/7/22 - 0200 13.0 -63 22.4 51.9 0.001 0.00 66 0 63.2 57.2 WSW | 240 17.8 WSW | 246 7.7 0.001 0.00 64.1 61.7
8/7/22 - 0100 13.0 -65 477.6 49.4 0.001 0.00 61 0 63.3 55.7 SW | 230 9.1 WSW | 246 4.1 0.246 0.00 83.1 61.2
8/7/22 - 0000 13.0 -61 458.3 49.4 0.001 0.00 55 0 66.0 56.6 W | 262 11.4 W | 267 4.7 0.246 0.00 83.1 61.2
8/6/22 - 2300 13.0 -63 438.5 50.2 0.000 0.00 57 0 65.9 57.1 W | 260 11.2 WNW | 296 2.5 0.245 0.00 83.1 61.2
8/6/22 - 2200 13.0 -63 418.5 51.3 0.000 0.00 57 0 66.8 58.1 W | 260 7.1 W | 281 2.4 0.245 0.00 83.1 61.2
8/6/22 - 2100 13.1 -61 398.4 52.2 0.001 0.00 54 2 69.8 59.4 W | 261 12.0 W | 274 4.9 0.245 0.00 83.1 61.2
8/6/22 - 2000 13.2 -67 377.8 52.7 0.005 0.00 47 85 74.4 60.9 W | 266 13.8 W | 273 7.0 0.243 0.00 83.1 61.2
8/6/22 - 1900 13.5 -63 358.4 55.1 0.011 0.00 46 281 77.7 63.0 WSW | 238 15.0 SSW | 207 8.1 0.238 0.00 83.1 61.2
8/6/22 - 1800 13.5 -61 341.9 55.8 0.017 0.00 44 490 79.4 63.8 SW | 227 18.8 SW | 217 10.7 0.228 0.00 83.1 61.2
8/6/22 - 1700 13.4 -63 321.9 56.4 0.023 0.00 43 681 81.1 64.5 SW | 224 18.6 SW | 214 11.4 0.210 0.00 83.1 61.2
8/6/22 - 1600 13.4 -63 302.8 56.7 0.027 0.00 42 828 81.7 64.8 SW | 222 18.3 SW | 221 11.2 0.188 0.00 83.1 61.2
8/6/22 - 1500 13.4 -61 282.9 56.8 0.029 0.00 43 926 81.4 64.8 SW | 218 17.6 WSW | 239 11.1 0.161 0.00 83.1 61.2
8/6/22 - 1400 13.5 -61 262.8 56.0 0.030 0.00 41 970 81.7 64.3 WSW | 237 17.8 SSW | 204 9.5 0.132 0.00 83.1 61.2
8/6/22 - 1300 13.5 -61 242.2 55.6 0.028 0.00 44 958 79.6 63.7 WSW | 242 16.5 WSW | 239 9.4 0.102 0.00 80.7 61.2
8/6/22 - 1200 13.5 -61 222.1 55.0 0.025 0.00 47 896 76.6 62.8 WSW | 257 17.0 W | 270 9.1 0.074 0.00 79.4 61.2
8/6/22 - 1100 13.6 -63 201.5 55.2 0.021 0.00 54 780 72.8 62.0 W | 259 15.6 W | 273 8.4 0.049 0.00 75.4 61.2
8/6/22 - 1000 13.6 -63 180.3 55.0 0.010 0.00 61 294 69.0 61.0 W | 262 17.4 W | 265 9.2 0.028 0.00 70.9 61.2
8/6/22 - 0900 13.6 -61 161.9 55.2 0.010 0.00 68 419 66.2 60.3 W | 266 15.4 SW | 231 9.2 0.018 0.00 67.8 61.2
8/6/22 - 0800 13.4 -65 142 55.3 0.005 0.00 74 210 63.8 59.6 W | 266 16.4 W | 278 9.0 0.008 0.00 64.5 61.2
8/6/22 - 0700 13.0 -63 121.1 55.2 0.001 0.00 79 37 61.8 58.9 WSW | 254 13.5 WSW | 243 6.8 0.003 0.00 62.9 61.2
8/6/22 - 0600 12.9 -69 101 54.8 0.001 0.00 79 0 61.4 58.5 WSW | 258 14.2 W | 269 7.9 0.002 0.00 62.9 61.2
8/6/22 - 0500 12.9 -69 81.7 55.3 0.001 0.00 79 0 61.9 59.0 W | 268 17.4 W | 272 8.6 0.001 0.00 62.9 61.5
8/6/22 - 0400 12.9 -65 62.07 55.7 0.000 0.00 79 0 62.1 59.4 WSW | 257 13.4 WSW | 257 5.9 0.001 0.00 62.9 61.7
8/6/22 - 0300 12.9 -65 42.07 56.0 0.000 0.00 80 0 62.4 59.7 W | 262 14.3 W | 261 6.9 0.001 0.00 62.9 62.2
8/6/22 - 0200 13.0 -67 21.43 56.2 0.000 0.00 80 0 62.6 59.9 W | 263 12.1 W | 270 5.9 0.000 0.00 62.9 62.2
8/6/22 - 0100 13.0 -63 480.7 56.3 0.000 0.00 79 0 62.8 60.0 W | 261 12.1 WSW | 258 5.0 0.228 0.00 85.5 60.6
8/6/22 - 0000 12.9 -65 463.1 56.5 0.000 0.00 78 0 63.3 60.3 SW | 234 15.8 W | 259 6.9 0.228 0.00 85.5 60.6
8/5/22 - 2300 13.0 -63 443.3 57.2 0.000 0.00 80 0 63.6 60.9 WSW | 238 13.7 SW | 235 6.7 0.227 0.00 85.5 60.6
8/5/22 - 2200 13.0 -65 422.1 57.5 0.000 0.00 80 0 63.8 61.1 SW | 234 12.4 SW | 214 6.2 0.227 0.00 85.5 60.6
8/5/22 - 2100 13.1 -63 402.2 57.4 0.001 0.00 75 5 65.3 61.5 SW | 227 17.0 WSW | 237 10.3 0.226 0.00 85.5 60.6
8/5/22 - 2000 13.3 -61 382.4 57.1 0.004 0.00 64 93 69.7 62.6 SW | 222 17.2 SW | 231 9.5 0.225 0.00 85.5 60.6
8/5/22 - 1900 13.5 -63 361 57.5 0.010 0.00 57 283 73.7 63.8 SW | 223 18.2 SW | 226 10.5 0.221 0.00 85.5 60.6
8/5/22 - 1800 13.5 -61 341.4 58.2 0.016 0.00 51 497 77.5 65.0 SW | 229 17.4 SSW | 210 10.1 0.211 0.00 85.5 60.6
8/5/22 - 1700 13.4 -63 320.7 58.7 0.019 0.00 50 585 78.9 65.6 SW | 221 17.8 SW | 215 11.2 0.195 0.00 85.5 60.6
8/5/22 - 1600 13.4 -61 300.7 58.8 0.022 0.00 48 690 80.6 66.0 SW | 221 18.3 SW | 224 10.5 0.176 0.00 85.5 60.6
8/5/22 - 1500 13.5 -61 280.7 59.0 0.025 0.00 46 771 81.8 66.2 SW | 220 17.4 WSW | 240 9.7 0.153 0.00 85.5 60.6
8/5/22 - 1400 13.4 -63 260.2 59.4 0.027 0.00 43 878 84.1 66.9 SW | 221 13.0 SW | 217 6.7 0.129 0.00 85.5 60.6
8/5/22 - 1300 13.5 -59 240.6 58.8 0.028 0.00 45 953 81.9 66.1 SW | 223 14.5 W | 259 5.8 0.101 0.00 83.5 60.6
8/5/22 - 1200 13.4 -61 219.5 57.1 0.023 0.00 49 825 77.7 64.3 WSW | 248 15.7 NW | 304 6.1 0.073 0.00 79.4 60.6
8/5/22 - 1100 13.5 -59 198.3 55.2 0.021 0.00 53 769 73.6 62.2 WNW | 289 17.1 W | 281 10.4 0.050 0.00 75.8 60.6
8/5/22 - 1000 13.6 -59 177.6 54.5 0.011 0.00 60 322 69.2 60.7 WNW | 289 17.6 WNW | 291 10.7 0.029 0.00 71.6 60.6
8/5/22 - 0900 13.6 -59 159.8 54.4 0.010 0.00 67 397 65.6 59.6 WNW | 285 20.4 WNW | 300 10.9 0.018 0.00 66.6 60.6
8/5/22 - 0800 13.6 -59 139.4 54.5 0.004 0.00 75 165 62.7 58.7 W | 274 17.1 W | 281 8.4 0.008 0.00 65.0 60.6
8/5/22 - 0700 13.0 -63 119.5 54.3 0.001 0.00 78 10 61.0 58.1 W | 274 17.0 WNW | 286 7.2 0.004 0.00 64.8 60.6
8/5/22 - 0600 12.9 -63 98.9 54.0 0.001 0.00 78 0 61.0 57.9 W | 269 17.2 W | 276 7.5 0.003 0.00 64.8 60.6
Max 13.6 0 489.3 59.4 0.033 0.00 86 982 87.6 66.9 - 23.0 - 12.0 0.275 0.00 88.8 63.7
Avg 13.2 -62.2083 239.3572 54.3 0.011 0.00 59 325 70.8 60.7 - 15.4 - 7.8 - - - -
Min 12.8 -69 17.62 49.4 0.000 0.00 30 0 58.4 55.7 - 7.1 - 2.4 0.000 0.00 60.7 57.6
Total - - - - 1.788 0.00 - - - - - - - - - - - -
Tip: Bookmark this page for easy future reference